Agenda, Kansas
Current Conditions -  °F | °C
As of 3:55 PM on Thursday 20 Nov 2014 (Local Time) from KCNK Reporting Station
Clear Clear  
Wind Chill: 34°   Ceiling: Unl
Heat Index: 40°   Visibility: 10mi
Dew Point: 20°   Wind: 9mph
Humidity: 45%   Direction: 100°E
Pressure: 30.12"   Gusts: NA
Location:  39.71°N, 97.43°W
Report Text: KCNK 202155Z AUTO 10008KT 10SM CLR 04/M07 A3012 RMK AO2 SLP213 T00441067
Loading
Personal Weather Stations






























Interactive Weather Map New forecast layout! Learn more

10-Day Weather Forecast

Advertisements
Track Severe Weather on mobile